Overview Statistics Trail Chart Weather Telemetry Raw packets
 

This is the latest recevied weather packets stored in our database for station/object 4S6DRJ-13. If no packets are shown the sender has not sent any weather packets the latest 10 day(s).

<< 151 152 153 154 155 156 157 >>
Time Temp. Humidity Pressure Rain* Wind** Luminosity Snow
1788235513 30.56° C 75% 1009.8 hPa 0 mm 0.89 m/s, 281° 509 W/m² -
1788235452 30° C 75% 1009.6 hPa 0 mm 1.34 m/s, 324° 1107 W/m² -
1788235391 30° C 74% 1009.7 hPa 0 mm 3.13 m/s, 263° 1106 W/m² -
1788235330 30° C 74% 1009.7 hPa 0 mm 1.34 m/s, 239° 302 W/m² -
1788235269 30° C 74% 1009.6 hPa 0 mm 1.34 m/s, 69° 1102 W/m² -
1788235209 30° C 75% 1009.7 hPa 0 mm 1.79 m/s, 189° 997 W/m² -
1788235147 30° C 75% 1009.7 hPa 0 mm 1.79 m/s, 101° 968 W/m² -
1788235086 30.56° C 75% 1009.8 hPa 0 mm 1.79 m/s, 275° 380 W/m² -
1788235025 30.56° C 74% 1009.8 hPa 0 mm 2.68 m/s, 209° 943 W/m² -
1788234964 30° C 75% 1009.6 hPa 0 mm 0.89 m/s, 165° 225 W/m² -
1788234903 30° C 75% 1009.6 hPa 0 mm 1.79 m/s, 81° 380 W/m² -
1788234843 30° C 75% 1009.7 hPa 0 mm 0.89 m/s, 265° 276 W/m² -
1788234783 30° C 76% 1009.6 hPa 0 mm 2.24 m/s, 342° 947 W/m² -
1788234720 30° C 75% 1009.6 hPa 0 mm 1.79 m/s, 238° 654 W/m² -
1788234660 30° C 76% 1009.7 hPa 0 mm 1.79 m/s, 312° 899 W/m² -
1788234598 30° C 75% 1009.8 hPa 0 mm 2.24 m/s, 220° 864 W/m² -
1788234537 30° C 75% 1009.6 hPa 0 mm 2.68 m/s, 219° 825 W/m² -
1788234476 30° C 75% 1009.5 hPa 0 mm 2.24 m/s, 231° 192 W/m² -
1788234416 30° C 75% 1009.7 hPa 0 mm 2.24 m/s, 201° 305 W/m² -
1788234354 30° C 75% 1009.6 hPa 0 mm 1.34 m/s, 283° 548 W/m² -
1788234293 30° C 74% 1009.6 hPa 0 mm 1.79 m/s, 241° 1100 W/m² -
1788234232 30° C 75% 1009.5 hPa 0 mm 1.79 m/s, 252° 950 W/m² -
1788234171 30° C 75% 1009.5 hPa 0 mm 2.68 m/s, 236° 781 W/m² -
1788234110 30° C 76% 1009.5 hPa 0 mm 1.34 m/s, 261° 450 W/m² -
1788234050 30° C 76% 1009.6 hPa 0 mm 1.34 m/s, 23° 834 W/m² -

* Rain latest hour (hover to see other rain measurements)
** Current wind speed in m/s (hover to see current wind gust speed)